Time;durP1;ratioP1;P1;durP2;ratioP2;P2;SDS_P1;SDS_P2;PMS_P1;PMS_P2;Temp;Humidity;BMP_temperature;BMP_pressure;BME280_temperature;BME280_humidity;BME280_pressure;Samples;Min_cycle;Max_cycle;Signal;HPM_P1;HPM_P2
2024/01/06 00:02:12;;;;;;;;;33.50;31.75;;;;;;;;5100028;27;45540;-75
2024/01/06 00:04:38;;;;;;;;;29.33;28.67;;;;;;;;5099841;27;45264;-75
2024/01/06 00:07:03;;;;;;;;;41.75;34.75;;;;;;;;5100335;27;45504;-75
2024/01/06 00:09:28;;;;;;;;;37.25;35.75;;;;;;;;5081550;27;46439;-75
2024/01/06 00:11:53;;;;;;;;;40.00;36.00;;;;;;;;5099961;27;45363;-75
2024/01/06 00:14:18;;;;;;;;;30.00;30.00;;;;;;;;5082578;27;45346;-75
2024/01/06 00:16:43;;;;;;;;;31.75;30.25;;;;;;;;5061018;28;45524;-75
2024/01/06 00:19:09;;;;;;;;;29.00;27.33;;;;;;;;5079115;28;45498;-75
2024/01/06 00:21:34;;;;;;;;;35.75;34.50;;;;;;;;5061066;28;46224;-75
2024/01/06 00:23:59;;;;;;;;;32.50;30.00;;;;;;;;5079575;28;45339;-75
2024/01/06 00:26:24;;;;;;;;;32.75;32.00;;;;;;;;5079580;28;45286;-75
2024/01/06 00:28:50;;;;;;;;;29.67;29.67;;;;;;;;5079319;28;45406;-75
2024/01/06 00:31:19;;;;;;;;;33.00;31.67;;;;;;;;5079160;28;45808;-75
2024/01/06 00:33:44;;;;;;;;;32.50;31.25;;;;;;;;5079034;28;45351;-76
2024/01/06 00:36:09;;;;;;;;;30.25;27.75;;;;;;;;5061089;28;45294;-76
2024/01/06 00:38:35;;;;;;;;;32.50;30.00;;;;;;;;5079278;28;45212;-75
2024/01/06 00:41:00;;;;;;;;;36.75;32.75;;;;;;;;5078811;28;45304;-76
2024/01/06 00:43:25;;;;;;;;;34.25;34.00;;;;;;;;5078737;28;45311;-75
2024/01/06 00:45:51;;;;;;;;;37.50;31.00;;;;;;;;5060763;28;45344;-76
2024/01/06 00:48:16;;;;;;;;;37.50;34.25;;;;;;;;5078621;28;45626;-76
2024/01/06 00:50:41;;;;;;;;;31.75;31.75;;;;;;;;5078723;28;45390;-75
2024/01/06 00:53:06;;;;;;;;;34.25;30.75;;;;;;;;5079210;28;45227;-76
2024/01/06 00:55:31;;;;;;;;;28.00;27.00;;;;;;;;5079339;28;45155;-75
2024/01/06 00:57:56;;;;;;;;;32.33;31.00;;;;;;;;5092654;27;45465;-76
2024/01/06 01:00:22;;;;;;;;;30.75;27.75;;;;;;;;5103123;27;45367;-75
2024/01/06 01:02:48;;;;;;;;;25.75;23.00;;;;;;;;5084411;27;45387;-75
2024/01/06 01:05:13;;;;;;;;;27.25;27.25;;;;;;;;5102950;27;45342;-76
2024/01/06 01:07:38;;;;;;;;;35.00;33.50;;;;;;;;5102892;27;45430;-76
2024/01/06 01:10:04;;;;;;;;;32.75;31.75;;;;;;;;5102896;27;46133;-76
2024/01/06 01:12:29;;;;;;;;;35.25;34.25;;;;;;;;5103034;27;45373;-75
2024/01/06 01:14:55;;;;;;;;;36.25;34.25;;;;;;;;5091389;27;45303;-76
2024/01/06 01:17:20;;;;;;;;;36.25;32.50;;;;;;;;5081980;28;45517;-75
2024/01/06 01:19:45;;;;;;;;;29.00;25.33;;;;;;;;5081059;28;45306;-75
2024/01/06 01:22:10;;;;;;;;;35.67;32.00;;;;;;;;5063096;28;46012;-76
2024/01/06 01:24:36;;;;;;;;;26.25;24.00;;;;;;;;5082067;28;45366;-76
2024/01/06 01:27:01;;;;;;;;;34.33;31.00;;;;;;;;5063981;28;45730;-76
2024/01/06 01:29:26;;;;;;;;;34.50;30.75;;;;;;;;5063624;28;47286;-76
2024/01/06 01:31:51;;;;;;;;;28.50;27.50;;;;;;;;5081900;28;45367;-76
2024/01/06 01:34:17;;;;;;;;;31.67;27.00;;;;;;;;5082136;28;45267;-75
2024/01/06 01:36:42;;;;;;;;;35.33;28.33;;;;;;;;5082046;28;45264;-76
2024/01/06 01:39:07;;;;;;;;;28.67;26.33;;;;;;;;5081984;28;45779;-75
2024/01/06 01:41:33;;;;;;;;;27.00;26.67;;;;;;;;5063465;28;45458;-76
2024/01/06 01:43:58;;;;;;;;;22.67;22.67;;;;;;;;5082192;28;45256;-75
2024/01/06 01:46:27;;;;;;;;;26.33;24.00;;;;;;;;5063117;28;45843;-75
2024/01/06 01:48:54;;;;;;;;;25.67;24.67;;;;;;;;5081842;28;46167;-76
2024/01/06 01:51:20;;;;;;;;;28.67;26.00;;;;;;;;5081632;28;45420;-76
2024/01/06 01:53:45;;;;;;;;;23.33;22.00;;;;;;;;5081782;28;45306;-76
2024/01/06 01:56:10;;;;;;;;;34.67;29.67;;;;;;;;5062873;28;45477;-75
2024/01/06 01:58:36;;;;;;;;;33.50;31.50;;;;;;;;5080532;28;45363;-75
2024/01/06 02:01:02;;;;;;;;;24.67;24.67;;;;;;;;5063327;28;45324;-75
2024/01/06 02:03:29;;;;;;;;;31.67;27.00;;;;;;;;5081542;28;45707;-76
2024/01/06 02:05:55;;;;;;;;;22.67;22.67;;;;;;;;5081506;28;45559;-75
2024/01/06 02:08:23;;;;;;;;;17.67;17.67;;;;;;;;5063072;28;47310;-75
2024/01/06 02:10:48;;;;;;;;;18.67;18.00;;;;;;;;5080406;28;45340;-75
2024/01/06 02:13:13;;;;;;;;;27.33;26.33;;;;;;;;5063452;28;45386;-75
2024/01/06 02:15:39;;;;;;;;;24.00;23.00;;;;;;;;5062985;28;47239;-75
2024/01/06 02:18:04;;;;;;;;;22.33;19.67;;;;;;;;5080701;28;45472;-76
2024/01/06 02:20:30;;;;;;;;;22.67;22.33;;;;;;;;5081232;28;45335;-76
2024/01/06 02:22:56;;;;;;;;;30.00;26.67;;;;;;;;5081452;28;45346;-75
2024/01/06 02:25:22;;;;;;;;;26.67;24.33;;;;;;;;5062781;28;46673;-76
2024/01/06 02:27:47;;;;;;;;;31.67;27.67;;;;;;;;5062778;28;47111;-76
2024/01/06 02:30:12;;;;;;;;;31.25;30.00;;;;;;;;5081146;28;45296;-75
2024/01/06 02:32:37;;;;;;;;;18.67;18.67;;;;;;;;5081213;28;45363;-75
2024/01/06 02:35:03;;;;;;;;;26.67;24.67;;;;;;;;5062515;28;46320;-75
2024/01/06 02:37:28;;;;;;;;;25.67;21.67;;;;;;;;5080593;28;45208;-75
2024/01/06 02:39:53;;;;;;;;;32.67;29.33;;;;;;;;5062358;28;46273;-76
2024/01/06 02:42:19;;;;;;;;;27.00;24.00;;;;;;;;5081207;28;45256;-76
2024/01/06 02:44:44;;;;;;;;;28.67;24.00;;;;;;;;5080902;28;45283;-76
2024/01/06 02:47:09;;;;;;;;;28.67;25.00;;;;;;;;5080664;28;45464;-75
2024/01/06 02:49:34;;;;;;;;;29.33;26.00;;;;;;;;5080924;28;45247;-76
2024/01/06 02:51:59;;;;;;;;;31.00;28.33;;;;;;;;5081024;28;45243;-75
2024/01/06 02:54:25;;;;;;;;;36.25;35.25;;;;;;;;5080737;28;45206;-76
2024/01/06 02:56:50;;;;;;;;;32.25;30.00;;;;;;;;5084259;27;45416;-75
2024/01/06 02:59:15;;;;;;;;;31.25;31.25;;;;;;;;5101346;27;45935;-75
2024/01/06 03:01:40;;;;;;;;;33.50;32.75;;;;;;;;5101179;27;45263;-75
2024/01/06 03:04:05;;;;;;;;;36.75;32.50;;;;;;;;5101011;27;45217;-76
2024/01/06 03:06:30;;;;;;;;;36.75;33.00;;;;;;;;5100924;27;45217;-75
2024/01/06 03:08:56;;;;;;;;;30.50;30.50;;;;;;;;5101259;27;45223;-75
2024/01/06 03:11:21;;;;;;;;;28.00;26.75;;;;;;;;5101177;27;45230;-75
2024/01/06 03:13:46;;;;;;;;;37.25;33.25;;;;;;;;5100970;27;45385;-75
2024/01/06 03:16:11;;;;;;;;;30.00;28.25;;;;;;;;5100688;27;46311;-76
2024/01/06 03:18:37;;;;;;;;;36.33;30.67;;;;;;;;5093842;27;45267;-76
2024/01/06 03:21:02;;;;;;;;;35.25;31.50;;;;;;;;5080324;28;45467;-75
2024/01/06 03:23:27;;;;;;;;;32.67;30.00;;;;;;;;5080066;28;45437;-75
2024/01/06 03:25:52;;;;;;;;;28.67;28.33;;;;;;;;5080258;28;45375;-76
2024/01/06 03:28:17;;;;;;;;;29.67;29.33;;;;;;;;5080310;28;45290;-76
2024/01/06 03:30:42;;;;;;;;;29.00;28.67;;;;;;;;5080376;28;45314;-75
2024/01/06 03:33:08;;;;;;;;;28.33;27.33;;;;;;;;5061851;28;45983;-75
2024/01/06 03:35:33;;;;;;;;;32.67;32.67;;;;;;;;5080149;28;45337;-75
2024/01/06 03:37:58;;;;;;;;;33.33;29.00;;;;;;;;5080161;28;45335;-75
2024/01/06 03:40:23;;;;;;;;;31.67;31.00;;;;;;;;5080390;28;45311;-75
2024/01/06 03:42:49;;;;;;;;;36.75;31.50;;;;;;;;5080290;28;45441;-75
2024/01/06 03:45:14;;;;;;;;;34.50;30.00;;;;;;;;5079758;28;46107;-75
2024/01/06 03:47:39;;;;;;;;;33.67;30.67;;;;;;;;5079775;28;45384;-76
2024/01/06 03:50:04;;;;;;;;;28.00;27.00;;;;;;;;5080043;28;45377;-75
2024/01/06 03:52:30;;;;;;;;;30.67;30.00;;;;;;;;5079605;28;46294;-75
2024/01/06 03:54:55;;;;;;;;;32.00;29.67;;;;;;;;5061283;28;47285;-75
2024/01/06 03:57:20;;;;;;;;;27.67;26.00;;;;;;;;5087564;27;45422;-76
2024/01/06 03:59:45;;;;;;;;;29.67;27.00;;;;;;;;5100501;27;45322;-76
2024/01/06 04:02:10;;;;;;;;;28.33;23.67;;;;;;;;5100057;27;45281;-75
2024/01/06 04:04:35;;;;;;;;;31.33;28.67;;;;;;;;5100014;27;45424;-75
2024/01/06 04:07:03;;;;;;;;;24.00;22.67;;;;;;;;5100271;27;45383;-75
2024/01/06 04:09:29;;;;;;;;;29.33;28.00;;;;;;;;5100372;27;45293;-76
2024/01/06 04:11:54;;;;;;;;;31.67;29.00;;;;;;;;5100005;27;45414;-76
2024/01/06 04:14:19;;;;;;;;;31.67;29.33;;;;;;;;5081604;27;47269;-75
2024/01/06 04:16:44;;;;;;;;;29.33;26.00;;;;;;;;5099885;27;45299;-75
2024/01/06 04:19:11;;;;;;;;;28.67;28.33;;;;;;;;5081639;27;45338;-74
2024/01/06 04:21:36;;;;;;;;;26.00;26.00;;;;;;;;5099970;27;45392;-75
2024/01/06 04:24:02;;;;;;;;;34.67;33.00;;;;;;;;5100054;27;45447;-75
2024/01/06 04:26:27;;;;;;;;;30.33;25.33;;;;;;;;5081579;27;45282;-75
2024/01/06 04:28:52;;;;;;;;;30.00;27.00;;;;;;;;5081452;27;45406;-75
2024/01/06 04:31:17;;;;;;;;;27.67;25.67;;;;;;;;5099526;27;45292;-74
2024/01/06 04:33:42;;;;;;;;;28.00;26.00;;;;;;;;5101484;27;46142;-75
2024/01/06 04:36:08;;;;;;;;;30.67;27.00;;;;;;;;5103616;27;45286;-75
2024/01/06 04:38:33;;;;;;;;;29.67;28.33;;;;;;;;5103687;27;45368;-75
2024/01/06 04:40:58;;;;;;;;;34.00;29.67;;;;;;;;5085014;27;46155;-75
2024/01/06 04:43:23;;;;;;;;;27.67;26.00;;;;;;;;5103440;27;46266;-75
2024/01/06 04:45:50;;;;;;;;;33.67;25.00;;;;;;;;5103240;27;45378;-76
2024/01/06 04:48:15;;;;;;;;;28.33;27.00;;;;;;;;5103369;27;45267;-75
2024/01/06 04:50:40;;;;;;;;;27.67;26.00;;;;;;;;5102913;27;45283;-77
2024/01/06 04:53:05;;;;;;;;;29.67;29.33;;;;;;;;5084776;27;48403;-76
2024/01/06 04:55:30;;;;;;;;;30.33;28.33;;;;;;;;5084738;27;45311;-75
2024/01/06 04:57:56;;;;;;;;;29.67;28.00;;;;;;;;5090252;27;45310;-75
2024/01/06 05:00:21;;;;;;;;;33.00;32.00;;;;;;;;5082616;28;45490;-76
2024/01/06 05:02:46;;;;;;;;;33.33;31.33;;;;;;;;5082449;28;45854;-75
2024/01/06 05:05:11;;;;;;;;;31.33;29.67;;;;;;;;5082546;28;45372;-74
2024/01/06 05:07:36;;;;;;;;;20.00;19.33;;;;;;;;5082830;28;45287;-75
2024/01/06 05:10:02;;;;;;;;;35.67;32.00;;;;;;;;5082688;28;45462;-75
2024/01/06 05:12:28;;;;;;;;;35.33;31.67;;;;;;;;5064243;28;47710;-75
2024/01/06 05:14:53;;;;;;;;;30.33;28.67;;;;;;;;5064111;28;45387;-75
2024/01/06 05:17:18;;;;;;;;;23.33;23.33;;;;;;;;5082390;28;45620;-75
2024/01/06 05:19:43;;;;;;;;;35.00;31.75;;;;;;;;5081945;28;45341;-76
2024/01/06 05:22:09;;;;;;;;;24.67;22.00;;;;;;;;5082296;28;45484;-76
2024/01/06 05:24:34;;;;;;;;;33.00;32.33;;;;;;;;5081848;28;45200;-76
2024/01/06 05:26:59;;;;;;;;;35.33;30.67;;;;;;;;5082585;28;45451;-76
2024/01/06 05:29:25;;;;;;;;;31.33;29.33;;;;;;;;5063636;28;46340;-75
2024/01/06 05:31:51;;;;;;;;;30.67;27.67;;;;;;;;5081895;28;45283;-75
2024/01/06 05:34:16;;;;;;;;;29.33;26.33;;;;;;;;5063656;28;45352;-75
2024/01/06 05:36:41;;;;;;;;;27.67;26.33;;;;;;;;5082329;28;45248;-75
2024/01/06 05:39:07;;;;;;;;;29.00;25.33;;;;;;;;5082224;28;45250;-75
2024/01/06 05:41:39;;;;;;;;;30.67;30.67;;;;;;;;5063685;28;47244;-76
2024/01/06 05:44:04;;;;;;;;;28.00;25.67;;;;;;;;5063744;28;46045;-75
2024/01/06 05:46:29;;;;;;;;;29.75;28.50;;;;;;;;5081490;28;45357;-75
2024/01/06 05:48:55;;;;;;;;;28.00;24.67;;;;;;;;5081838;28;45274;-76
2024/01/06 05:51:21;;;;;;;;;30.00;27.00;;;;;;;;5081750;28;45999;-75
2024/01/06 05:53:48;;;;;;;;;25.00;24.00;;;;;;;;5063460;28;45276;-76
2024/01/06 05:56:24;;;;;;;;;20.33;20.33;;;;;;;;5082117;28;45318;-75
2024/01/06 05:58:50;;;;;;;;;26.33;20.00;;;;;;;;5060076;28;45482;-76
2024/01/06 06:01:15;;;;;;;;;26.00;23.00;;;;;;;;5061140;28;45430;-77
2024/01/06 06:03:40;;;;;;;;;25.00;22.33;;;;;;;;5061415;28;45229;-75
2024/01/06 06:06:06;;;;;;;;;26.00;22.33;;;;;;;;5043314;28;45257;-76
2024/01/06 06:08:31;;;;;;;;;24.00;23.67;;;;;;;;5061445;28;45344;-75
2024/01/06 06:11:05;;;;;;;;;22.33;19.67;;;;;;;;5043199;28;47559;-75
2024/01/06 06:13:30;;;;;;;;;22.00;21.00;;;;;;;;5061413;28;45485;-76
2024/01/06 06:15:55;;;;;;;;;19.00;19.00;;;;;;;;5059712;28;45585;-75
2024/01/06 06:18:20;;;;;;;;;14.67;14.67;;;;;;;;5060831;28;45286;-76
2024/01/06 06:20:45;;;;;;;;;16.67;16.33;;;;;;;;5061033;28;45474;-76
2024/01/06 06:23:11;;;;;;;;;20.00;19.00;;;;;;;;5059668;28;45319;-76
2024/01/06 06:25:37;;;;;;;;;20.00;18.67;;;;;;;;5061137;28;45319;-76
2024/01/06 06:28:03;;;;;;;;;23.00;21.00;;;;;;;;5060981;28;45471;-77
2024/01/06 06:30:28;;;;;;;;;20.00;20.00;;;;;;;;5060637;28;45242;-76
2024/01/06 06:32:53;;;;;;;;;18.33;17.33;;;;;;;;5060874;28;45151;-75
2024/01/06 06:35:19;;;;;;;;;21.33;19.00;;;;;;;;5059520;28;45536;-75
2024/01/06 06:37:44;;;;;;;;;21.00;19.67;;;;;;;;5071272;28;45432;-76
2024/01/06 06:40:09;;;;;;;;;17.67;17.33;;;;;;;;5069474;28;45390;-75
2024/01/06 06:42:34;;;;;;;;;19.00;18.00;;;;;;;;5052331;28;45410;-76
2024/01/06 06:45:03;;;;;;;;;16.00;14.33;;;;;;;;5063411;28;45363;-76
2024/01/06 06:47:28;;;;;;;;;18.00;15.33;;;;;;;;5042307;28;45361;-75
2024/01/06 06:49:53;;;;;;;;;19.00;16.33;;;;;;;;5060421;28;46250;-76
2024/01/06 06:52:18;;;;;;;;;12.00;11.00;;;;;;;;5060539;28;45413;-76
2024/01/06 06:54:43;;;;;;;;;13.00;13.00;;;;;;;;5042635;28;45402;-75
2024/01/06 06:57:08;;;;;;;;;12.67;12.33;;;;;;;;5072339;27;45506;-76
2024/01/06 06:59:34;;;;;;;;;10.00;10.00;;;;;;;;5082740;27;48630;-76
2024/01/06 07:01:59;;;;;;;;;10.67;10.67;;;;;;;;5101058;27;45306;-75
2024/01/06 07:04:25;;;;;;;;;7.50;7.50;;;;;;;;5101487;27;45413;-75
2024/01/06 07:06:51;;;;;;;;;10.33;10.33;;;;;;;;5082774;27;46251;-75
2024/01/06 07:09:16;;;;;;;;;12.00;11.00;;;;;;;;5100949;27;46323;-75
2024/01/06 07:11:41;;;;;;;;;11.00;10.00;;;;;;;;5087180;27;45418;-75
2024/01/06 07:14:06;;;;;;;;;12.00;11.67;;;;;;;;5081093;28;45289;-75
2024/01/06 07:16:32;;;;;;;;;8.00;6.67;;;;;;;;5061414;28;47265;-75
2024/01/06 07:18:57;;;;;;;;;9.33;9.00;;;;;;;;5061781;28;47330;-75
2024/01/06 07:21:23;;;;;;;;;10.33;10.00;;;;;;;;5062332;28;45393;-75
2024/01/06 07:23:48;;;;;;;;;10.00;7.00;;;;;;;;5080597;28;45218;-75
2024/01/06 07:26:13;;;;;;;;;12.00;10.67;;;;;;;;5080335;28;45244;-75
2024/01/06 07:28:38;;;;;;;;;9.00;9.00;;;;;;;;5061941;28;46083;-75
2024/01/06 07:31:04;;;;;;;;;11.00;10.33;;;;;;;;5080467;28;45388;-75
2024/01/06 07:33:29;;;;;;;;;5.67;5.67;;;;;;;;5080420;28;45353;-75
2024/01/06 07:35:55;;;;;;;;;9.00;8.67;;;;;;;;5080272;28;45541;-75
2024/01/06 07:38:20;;;;;;;;;8.33;7.67;;;;;;;;5080263;28;46041;-74
2024/01/06 07:40:45;;;;;;;;;8.67;8.33;;;;;;;;5080242;28;45274;-74
2024/01/06 07:43:10;;;;;;;;;12.67;12.00;;;;;;;;5080161;28;45479;-73
2024/01/06 07:45:36;;;;;;;;;7.00;7.00;;;;;;;;5079556;28;45291;-75
2024/01/06 07:48:01;;;;;;;;;10.00;10.00;;;;;;;;5078641;28;46307;-75
2024/01/06 07:50:27;;;;;;;;;9.67;9.00;;;;;;;;5061670;28;46107;-75
2024/01/06 07:52:53;;;;;;;;;8.33;8.33;;;;;;;;5080390;28;45351;-74
2024/01/06 07:55:19;;;;;;;;;5.33;5.33;;;;;;;;5079895;28;45363;-75
2024/01/06 07:57:44;;;;;;;;;9.00;8.33;;;;;;;;5061558;28;47941;-74
2024/01/06 08:00:09;;;;;;;;;8.00;8.00;;;;;;;;5079734;28;45370;-75
2024/01/06 08:02:35;;;;;;;;;7.33;7.33;;;;;;;;5072009;28;45351;-76
2024/01/06 08:05:00;;;;;;;;;6.67;6.33;;;;;;;;5051105;28;46038;-75
2024/01/06 08:07:25;;;;;;;;;8.33;8.33;;;;;;;;5061270;28;45474;-75
2024/01/06 08:09:50;;;;;;;;;8.33;8.33;;;;;;;;5059563;28;45398;-75
2024/01/06 08:12:15;;;;;;;;;9.00;7.00;;;;;;;;5059722;28;45339;-75
2024/01/06 08:14:41;;;;;;;;;10.67;9.00;;;;;;;;5041353;28;46263;-75
2024/01/06 08:17:06;;;;;;;;;17.67;13.00;;;;;;;;5066708;28;45470;-76
2024/01/06 08:19:33;;;;;;;;;10.67;8.00;;;;;;;;5066891;28;45327;-76
2024/01/06 08:21:58;;;;;;;;;9.67;7.00;;;;;;;;5069334;28;45179;-75
2024/01/06 08:24:24;;;;;;;;;9.33;8.33;;;;;;;;5069183;28;45319;-75
2024/01/06 08:26:49;;;;;;;;;9.67;9.67;;;;;;;;5061953;28;46005;-76
2024/01/06 08:29:16;;;;;;;;;9.33;8.67;;;;;;;;5059183;28;45182;-75
2024/01/06 08:31:41;;;;;;;;;12.00;12.00;;;;;;;;5058962;28;45352;-75
2024/01/06 08:34:07;;;;;;;;;12.33;12.00;;;;;;;;5062858;28;45162;-75
2024/01/06 08:36:33;;;;;;;;;14.67;13.00;;;;;;;;5079281;28;45410;-75
2024/01/06 08:38:58;;;;;;;;;18.00;16.67;;;;;;;;5079250;28;45274;-75
2024/01/06 08:41:23;;;;;;;;;13.00;13.00;;;;;;;;5057866;28;45364;-77
2024/01/06 08:43:48;;;;;;;;;8.67;8.67;;;;;;;;5057834;28;45969;-75
2024/01/06 08:46:13;;;;;;;;;8.00;8.00;;;;;;;;5078857;28;46210;-75
2024/01/06 08:48:39;;;;;;;;;11.33;10.33;;;;;;;;5079194;28;45327;-75
2024/01/06 08:51:04;;;;;;;;;10.67;9.33;;;;;;;;5079244;28;45485;-75
2024/01/06 08:53:29;;;;;;;;;13.67;12.33;;;;;;;;5079154;28;45246;-75
2024/01/06 08:55:54;;;;;;;;;13.67;13.00;;;;;;;;5079045;28;46282;-76
2024/01/06 08:58:19;;;;;;;;;16.33;15.67;;;;;;;;5062446;28;45310;-75
2024/01/06 09:00:45;;;;;;;;;11.00;9.33;;;;;;;;5074583;27;45593;-76
2024/01/06 09:03:12;;;;;;;;;8.00;7.00;;;;;;;;5084777;27;45456;-75
2024/01/06 09:05:37;;;;;;;;;7.33;7.00;;;;;;;;5086948;27;45613;-75
2024/01/06 09:08:03;;;;;;;;;13.67;11.67;;;;;;;;5083754;27;45431;-76
2024/01/06 09:10:29;;;;;;;;;9.67;9.67;;;;;;;;5088408;27;45300;-75
2024/01/06 09:12:54;;;;;;;;;8.33;8.33;;;;;;;;5068952;27;45516;-75
2024/01/06 09:15:19;;;;;;;;;8.33;7.33;;;;;;;;5040335;28;46323;-75
2024/01/06 09:17:44;;;;;;;;;10.33;7.67;;;;;;;;5056575;28;45452;-75
2024/01/06 09:20:10;;;;;;;;;6.67;6.67;;;;;;;;5058659;28;45303;-75
2024/01/06 09:22:35;;;;;;;;;8.00;8.00;;;;;;;;5042100;28;46311;-75
2024/01/06 09:25:00;;;;;;;;;7.67;7.67;;;;;;;;5060093;28;45782;-75
2024/01/06 09:27:25;;;;;;;;;6.00;6.00;;;;;;;;5060513;28;45319;-75
2024/01/06 09:29:51;;;;;;;;;5.67;5.67;;;;;;;;5059939;28;45512;-75
2024/01/06 09:32:16;;;;;;;;;4.67;4.67;;;;;;;;5070817;28;45413;-75
2024/01/06 09:34:41;;;;;;;;;5.00;5.00;;;;;;;;5076317;28;46745;-75
2024/01/06 09:37:06;;;;;;;;;5.00;4.00;;;;;;;;5069613;28;45269;-75
2024/01/06 09:39:31;;;;;;;;;6.00;6.00;;;;;;;;5061755;28;45283;-75
2024/01/06 09:41:57;;;;;;;;;4.00;4.00;;;;;;;;5061854;28;45315;-75
2024/01/06 09:44:22;;;;;;;;;5.00;4.67;;;;;;;;5061776;28;46236;-75
2024/01/06 09:46:47;;;;;;;;;6.00;6.00;;;;;;;;5062762;28;45240;-75
2024/01/06 09:49:14;;;;;;;;;7.00;7.00;;;;;;;;5082125;28;45487;-75
2024/01/06 09:51:40;;;;;;;;;6.00;6.00;;;;;;;;5081564;28;45303;-75
2024/01/06 09:54:08;;;;;;;;;5.00;5.00;;;;;;;;5063452;28;46170;-75
2024/01/06 09:56:33;;;;;;;;;4.33;4.33;;;;;;;;5083291;27;45342;-76
2024/01/06 09:58:59;;;;;;;;;3.00;3.00;;;;;;;;5102422;27;45290;-75
2024/01/06 10:01:24;;;;;;;;;3.67;1.67;;;;;;;;5102117;27;45359;-75
2024/01/06 10:03:49;;;;;;;;;2.00;2.00;;;;;;;;5102131;27;45323;-75
2024/01/06 10:06:15;;;;;;;;;3.00;3.00;;;;;;;;5102201;27;45265;-76
2024/01/06 10:08:44;;;;;;;;;3.00;2.00;;;;;;;;5102455;27;45314;-75
2024/01/06 10:11:12;;;;;;;;;1.00;1.00;;;;;;;;5102214;27;45390;-75
2024/01/06 10:13:39;;;;;;;;;1.33;1.33;;;;;;;;5102036;27;45425;-76
2024/01/06 10:16:05;;;;;;;;;1.33;1.33;;;;;;;;5101887;27;45338;-75
2024/01/06 10:18:31;;;;;;;;;0.33;0.33;;;;;;;;5102001;27;45219;-77
2024/01/06 10:20:56;;;;;;;;;3.67;2.67;;;;;;;;5102256;27;45274;-76
2024/01/06 10:23:26;;;;;;;;;2.00;2.00;;;;;;;;5101942;27;46305;-75
2024/01/06 10:25:55;;;;;;;;;1.33;1.33;;;;;;;;5101861;27;45414;-75
2024/01/06 10:28:21;;;;;;;;;1.67;1.67;;;;;;;;5076711;27;45289;-75
2024/01/06 10:30:46;;;;;;;;;1.00;1.00;;;;;;;;5070659;28;45598;-76
2024/01/06 10:33:13;;;;;;;;;2.33;2.33;;;;;;;;5069614;28;45319;-76
2024/01/06 10:35:38;;;;;;;;;2.67;2.67;;;;;;;;5071506;28;45418;-75
2024/01/06 10:38:04;;;;;;;;;2.00;2.00;;;;;;;;5070019;28;45429;-75
2024/01/06 10:40:29;;;;;;;;;2.00;2.00;;;;;;;;5070039;28;45375;-76
2024/01/06 10:42:57;;;;;;;;;3.00;3.00;;;;;;;;5070322;28;46415;-76
2024/01/06 10:45:22;;;;;;;;;2.33;2.33;;;;;;;;5067335;28;45391;-76
2024/01/06 10:47:49;;;;;;;;;2.00;2.00;;;;;;;;5068357;28;45218;-76
2024/01/06 10:50:14;;;;;;;;;2.00;2.00;;;;;;;;5051726;28;47587;-75
2024/01/06 10:52:41;;;;;;;;;2.67;2.67;;;;;;;;5074901;28;45307;-75
2024/01/06 10:55:06;;;;;;;;;1.33;1.33;;;;;;;;5081288;28;45334;-75
2024/01/06 10:57:32;;;;;;;;;3.00;1.67;;;;;;;;5083988;27;45241;-76
2024/01/06 10:59:58;;;;;;;;;1.00;1.00;;;;;;;;5069479;28;45398;-76
2024/01/06 11:02:25;;;;;;;;;4.00;3.67;;;;;;;;5075650;28;46071;-75
2024/01/06 11:04:50;;;;;;;;;3.00;3.00;;;;;;;;5077087;28;45481;-77
2024/01/06 11:07:17;;;;;;;;;2.33;2.00;;;;;;;;5080845;28;45381;-76
2024/01/06 11:10:03;;;;;;;;;2.33;2.33;;;;;;;;5060466;28;45360;-75
2024/01/06 11:12:28;;;;;;;;;4.00;4.00;;;;;;;;5061581;28;47222;-77
2024/01/06 11:14:54;;;;;;;;;2.00;2.00;;;;;;;;5061102;28;45252;-77
2024/01/06 11:17:38;;;;;;;;;4.33;2.67;;;;;;;;5062293;28;45280;-76
2024/01/06 11:20:06;;;;;;;;;1.00;1.00;;;;;;;;5063397;28;46009;-77
2024/01/06 11:22:31;;;;;;;;;1.00;1.00;;;;;;;;5065052;28;45252;-76
2024/01/06 11:25:03;;;;;;;;;1.00;1.00;;;;;;;;5060593;28;45208;-77
2024/01/06 11:27:28;;;;;;;;;1.00;1.00;;;;;;;;5061195;28;45275;-77
2024/01/06 11:29:54;;;;;;;;;1.33;1.33;;;;;;;;5063738;28;45224;-76
2024/01/06 11:32:19;;;;;;;;;2.67;2.33;;;;;;;;5044464;28;47815;-77
2024/01/06 11:34:47;;;;;;;;;1.00;1.00;;;;;;;;5077221;28;45208;-77
2024/01/06 11:37:13;;;;;;;;;1.00;1.00;;;;;;;;5062249;28;45303;-76
2024/01/06 11:39:40;;;;;;;;;2.00;2.00;;;;;;;;5079552;28;45394;-75
2024/01/06 11:42:06;;;;;;;;;0.33;0.33;;;;;;;;5079141;28;45477;-75
2024/01/06 11:44:36;;;;;;;;;1.33;1.33;;;;;;;;5080352;28;45517;-76
2024/01/06 11:47:02;;;;;;;;;1.00;1.00;;;;;;;;5080402;28;45284;-76
2024/01/06 11:49:30;;;;;;;;;1.00;1.00;;;;;;;;5071520;28;45239;-76
2024/01/06 11:52:01;;;;;;;;;2.00;2.00;;;;;;;;5068231;27;45488;-75
2024/01/06 11:54:27;;;;;;;;;2.00;2.00;;;;;;;;5061452;28;45411;-76
2024/01/06 11:56:53;;;;;;;;;2.00;2.00;;;;;;;;5083595;27;45231;-75
2024/01/06 11:59:19;;;;;;;;;3.00;1.00;;;;;;;;5100161;27;45405;-76
2024/01/06 12:01:45;;;;;;;;;1.00;1.00;;;;;;;;5099381;27;45440;-76
2024/01/06 12:04:13;;;;;;;;;2.00;2.00;;;;;;;;5099370;27;45448;-75
2024/01/06 12:06:38;;;;;;;;;1.00;1.00;;;;;;;;5099799;27;45360;-76
2024/01/06 12:09:04;;;;;;;;;3.00;1.00;;;;;;;;5099909;27;46229;-76
2024/01/06 12:11:30;;;;;;;;;3.00;1.67;;;;;;;;5099689;27;45904;-76
2024/01/06 12:13:55;;;;;;;;;1.00;1.00;;;;;;;;5099840;27;45414;-76
2024/01/06 12:16:21;;;;;;;;;1.00;1.00;;;;;;;;5099930;27;45528;-76
2024/01/06 12:18:46;;;;;;;;;2.00;2.00;;;;;;;;5098037;27;45398;-79
2024/01/06 12:21:12;;;;;;;;;2.00;2.00;;;;;;;;5099430;27;46155;-76
2024/01/06 12:23:37;;;;;;;;;1.00;1.00;;;;;;;;5062271;28;45331;-78
2024/01/06 12:26:02;;;;;;;;;1.67;1.67;;;;;;;;5051148;28;45191;-76
2024/01/06 12:28:27;;;;;;;;;2.67;2.67;;;;;;;;5059778;28;45590;-76
2024/01/06 12:30:53;;;;;;;;;1.67;1.67;;;;;;;;5063998;28;46370;-77
2024/01/06 12:33:19;;;;;;;;;1.33;1.33;;;;;;;;5079156;28;45299;-77
2024/01/06 12:35:47;;;;;;;;;1.00;1.00;;;;;;;;5079271;28;45299;-79
2024/01/06 12:38:12;;;;;;;;;0.33;0.00;;;;;;;;5072725;28;45485;-79
2024/01/06 12:40:37;;;;;;;;;1.00;1.00;;;;;;;;5068449;28;46146;-79
2024/01/06 12:43:04;;;;;;;;;0.67;0.67;;;;;;;;5078724;28;45280;-77
2024/01/06 12:45:29;;;;;;;;;1.00;1.00;;;;;;;;5064634;28;45387;-75
2024/01/06 12:47:54;;;;;;;;;0.00;0.00;;;;;;;;5058586;28;45335;-77
2024/01/06 12:50:19;;;;;;;;;0.00;0.00;;;;;;;;5062519;28;45883;-77
2024/01/06 12:52:45;;;;;;;;;0.00;0.00;;;;;;;;5063555;28;45260;-76
2024/01/06 12:55:11;;;;;;;;;0.00;0.00;;;;;;;;5061259;28;45370;-75
2024/01/06 12:57:36;;;;;;;;;1.33;1.33;;;;;;;;5086652;27;45238;-77
2024/01/06 13:00:01;;;;;;;;;0.33;0.33;;;;;;;;5102328;27;45609;-77
2024/01/06 13:02:26;;;;;;;;;1.00;1.00;;;;;;;;5097658;27;45566;-75
2024/01/06 13:04:52;;;;;;;;;1.00;1.00;;;;;;;;5060787;28;45252;-77
2024/01/06 13:07:17;;;;;;;;;1.00;1.00;;;;;;;;5062149;28;45265;-76
2024/01/06 13:09:42;;;;;;;;;1.00;1.00;;;;;;;;5061679;28;45339;-75
2024/01/06 13:12:08;;;;;;;;;0.00;0.00;;;;;;;;5061029;28;45315;-76
2024/01/06 13:14:33;;;;;;;;;2.00;2.00;;;;;;;;5064058;28;45458;-75
2024/01/06 13:16:58;;;;;;;;;0.33;0.33;;;;;;;;5081423;28;45369;-76
2024/01/06 13:19:25;;;;;;;;;0.00;0.00;;;;;;;;5081313;28;45869;-76
2024/01/06 13:21:50;;;;;;;;;1.00;1.00;;;;;;;;5082148;28;45390;-75
2024/01/06 13:24:15;;;;;;;;;0.00;0.00;;;;;;;;5080495;28;45797;-78
2024/01/06 13:26:41;;;;;;;;;0.67;0.00;;;;;;;;5080844;28;45609;-76
2024/01/06 13:29:06;;;;;;;;;1.00;1.00;;;;;;;;5081718;28;45930;-76
2024/01/06 13:31:32;;;;;;;;;0.33;0.33;;;;;;;;5081772;28;45462;-75
2024/01/06 13:33:57;;;;;;;;;1.67;1.67;;;;;;;;5082055;28;45551;-76
2024/01/06 13:36:22;;;;;;;;;0.00;0.00;;;;;;;;5082406;28;45410;-75
2024/01/06 13:38:48;;;;;;;;;1.00;1.00;;;;;;;;5082237;28;45330;-77
2024/01/06 13:41:14;;;;;;;;;1.33;1.00;;;;;;;;5082183;28;45396;-75
2024/01/06 13:43:39;;;;;;;;;1.00;0.00;;;;;;;;5074633;28;45141;-76
2024/01/06 13:46:04;;;;;;;;;0.00;0.00;;;;;;;;5062002;28;45684;-76
2024/01/06 13:48:29;;;;;;;;;1.33;1.00;;;;;;;;5061526;28;46501;-75
2024/01/06 13:50:56;;;;;;;;;0.00;0.00;;;;;;;;5064164;28;45311;-78
2024/01/06 13:53:21;;;;;;;;;1.00;1.00;;;;;;;;5052722;28;45639;-76
2024/01/06 13:55:47;;;;;;;;;2.00;2.00;;;;;;;;5052466;28;45385;-76
2024/01/06 13:58:12;;;;;;;;;3.67;2.00;;;;;;;;5050408;28;46105;-76
2024/01/06 14:00:38;;;;;;;;;1.00;1.00;;;;;;;;5051312;28;45626;-76
2024/01/06 14:03:04;;;;;;;;;2.00;0.67;;;;;;;;5049928;28;45344;-75
2024/01/06 14:05:30;;;;;;;;;1.67;1.67;;;;;;;;5051026;28;46384;-76
2024/01/06 14:07:55;;;;;;;;;3.00;3.00;;;;;;;;5047951;28;45409;-76
2024/01/06 14:10:21;;;;;;;;;3.00;1.00;;;;;;;;5052381;28;45415;-76
2024/01/06 14:12:46;;;;;;;;;3.33;3.33;;;;;;;;5051933;28;45450;-76
2024/01/06 14:15:11;;;;;;;;;3.33;2.00;;;;;;;;5054892;28;45656;-77
2024/01/06 14:17:38;;;;;;;;;2.00;1.67;;;;;;;;5054599;28;46293;-75
2024/01/06 14:20:04;;;;;;;;;2.67;2.67;;;;;;;;5059258;28;45346;-77